Time;durP1;ratioP1;P1;durP2;ratioP2;P2;SDS_P1;SDS_P2;PMS_P1;PMS_P2;Temp;Humidity;BMP_temperature;BMP_pressure;BME280_temperature;BME280_humidity;BME280_pressure;Samples;Min_cycle;Max_cycle;Signal;HPM_P1;HPM_P2
2022/09/16 00:01:49;;;;;;;1.90;1.23;;;20.90;98.10;;;;;;5033875;28;20036;-24
2022/09/16 00:04:16;;;;;;;2.45;1.45;;;20.90;98.10;;;;;;5033605;28;20033;-24
2022/09/16 00:06:42;;;;;;;3.10;1.20;;;20.90;98.10;;;;;;5033492;28;20087;-24
2022/09/16 00:09:09;;;;;;;2.30;1.33;;;20.90;98.10;;;;;;5033327;28;20042;-24
2022/09/16 00:11:34;;;;;;;2.28;1.30;;;20.90;98.00;;;;;;5033455;28;20022;-24
2022/09/16 00:14:01;;;;;;;2.45;1.48;;;20.90;98.00;;;;;;5033340;28;20025;-24
2022/09/16 00:16:28;;;;;;;1.95;1.23;;;20.80;98.00;;;;;;5033837;28;20025;-24
2022/09/16 00:18:56;;;;;;;2.60;1.50;;;20.90;98.10;;;;;;5033240;28;20111;-24
2022/09/16 00:21:23;;;;;;;2.75;1.42;;;20.90;98.10;;;;;;5033362;28;20022;-24
2022/09/16 00:23:49;;;;;;;3.95;1.42;;;20.90;98.10;;;;;;5033259;28;20038;-24
2022/09/16 00:26:15;;;;;;;1.55;1.45;;;20.90;98.10;;;;;;5033141;28;20025;-24
2022/09/16 00:28:41;;;;;;;1.77;1.30;;;20.80;98.10;;;;;;5032822;28;20125;-24
2022/09/16 00:31:07;;;;;;;3.95;1.50;;;20.80;98.00;;;;;;5033367;28;20109;-24
2022/09/16 00:33:33;;;;;;;2.22;1.58;;;20.80;98.10;;;;;;5016241;28;20104;-24
2022/09/16 00:36:08;;;;;;;2.17;1.40;;;20.80;98.10;;;;;;5032952;28;20108;-24
2022/09/16 00:38:34;;;;;;;2.38;1.40;;;20.80;98.10;;;;;;5032877;28;20032;-24
2022/09/16 00:41:00;;;;;;;2.42;1.20;;;20.80;98.10;;;;;;5032756;28;20030;-24
2022/09/16 00:43:26;;;;;;;1.83;1.20;;;20.80;98.10;;;;;;5032940;28;20025;-24
2022/09/16 00:46:04;;;;;;;2.53;1.58;;;20.80;98.10;;;;;;5032854;28;20053;-24
2022/09/16 00:48:31;;;;;;;2.63;1.30;;;20.80;98.00;;;;;;5032711;28;20037;-24
2022/09/16 00:51:04;;;;;;;1.90;1.70;;;20.80;98.10;;;;;;5032653;28;20357;-24
2022/09/16 00:53:39;;;;;;;1.88;1.17;;;20.80;98.00;;;;;;5032548;28;20032;-24
2022/09/16 00:56:08;;;;;;;2.53;1.50;;;20.80;98.00;;;;;;5032642;28;20045;-24
2022/09/16 00:59:01;;;;;;;1.80;1.35;;;20.80;98.00;;;;;;5032521;28;20022;-24
2022/09/16 01:01:28;;;;;;;2.92;1.50;;;20.80;98.00;;;;;;5032585;28;20059;-24
2022/09/16 01:03:57;;;;;;;1.75;1.50;;;20.70;98.40;;;;;;5032418;28;20034;-24
2022/09/16 01:06:25;;;;;;;1.67;1.58;;;20.80;98.10;;;;;;5032439;28;20037;-24
2022/09/16 01:08:51;;;;;;;2.40;1.50;;;20.70;98.10;;;;;;5032272;28;20324;-24
2022/09/16 01:11:16;;;;;;;2.28;1.60;;;20.70;98.10;;;;;;5032369;28;20049;-24
2022/09/16 01:13:43;;;;;;;1.85;1.50;;;20.70;98.10;;;;;;5032417;28;20434;-24
2022/09/16 01:16:26;;;;;;;2.55;1.50;;;20.70;98.10;;;;;;5032211;28;20037;-24
2022/09/16 01:19:22;;;;;;;1.88;1.42;;;20.70;98.10;;;;;;5032428;28;20398;-24
2022/09/16 01:22:09;;;;;;;2.33;1.73;;;20.70;98.10;;;;;;5032263;28;20032;-24
2022/09/16 01:24:58;;;;;;;4.03;1.55;;;20.70;98.20;;;;;;5032341;28;20029;-24
2022/09/16 01:27:31;;;;;;;4.57;1.42;;;20.70;98.20;;;;;;5032370;28;20120;-24
2022/09/16 01:30:28;;;;;;;1.98;1.60;;;20.70;98.20;;;;;;5032084;28;20022;-24
2022/09/16 01:33:26;;;;;;;2.13;1.50;;;20.70;98.20;;;;;;5004856;28;20380;-24
2022/09/16 01:36:23;;;;;;;1.63;1.52;;;20.70;98.20;;;;;;4991398;28;20032;-24
2022/09/16 01:39:11;;;;;;;4.32;1.63;;;20.70;98.20;;;;;;5032311;28;20040;-24
2022/09/16 01:41:56;;;;;;;3.58;1.42;;;20.70;98.10;;;;;;5021309;28;20124;-24
2022/09/16 01:44:21;;;;;;;;;;;20.70;98.10;;;;;;5032523;28;20416;-24
2022/09/16 01:47:05;;;;;;;2.13;1.40;;;20.70;98.10;;;;;;5031940;28;20385;-24
2022/09/16 01:49:50;;;;;;;4.43;1.50;;;20.70;98.10;;;;;;5031733;28;20025;-24
2022/09/16 01:52:21;;;;;;;;;;;20.70;98.10;;;;;;5032334;28;20026;-24
2022/09/16 01:55:01;;;;;;;2.13;1.73;;;20.70;98.10;;;;;;5031958;28;19920;-24
2022/09/16 01:58:05;;;;;;;1.92;1.40;;;20.60;98.10;;;;;;5031930;28;20026;-24
2022/09/16 02:00:32;;;;;;;3.72;1.48;;;20.60;98.10;;;;;;5031759;28;20025;-24
2022/09/16 02:03:12;;;;;;;1.92;1.35;;;20.60;98.10;;;;;;5035027;28;20458;-24
2022/09/16 02:05:48;;;;;;;1.85;1.50;;;20.60;98.10;;;;;;5035879;28;20018;-24
2022/09/16 02:08:19;;;;;;;2.40;1.75;;;20.60;98.10;;;;;;5035828;28;20087;-24
2022/09/16 02:10:54;;;;;;;2.33;1.60;;;20.60;98.10;;;;;;5035596;28;20079;-24
2022/09/16 02:13:27;;;;;;;2.97;1.40;;;20.60;98.10;;;;;;5036194;28;20386;-24
2022/09/16 02:15:58;;;;;;;1.73;1.40;;;20.60;98.10;;;;;;5035709;28;20029;-24
2022/09/16 02:18:30;;;;;;;1.65;1.48;;;20.60;98.20;;;;;;5035572;28;20013;-24
2022/09/16 02:20:59;;;;;;;3.17;1.30;;;20.60;98.10;;;;;;5035504;28;20029;-24
2022/09/16 02:23:33;;;;;;;1.95;1.45;;;20.60;98.10;;;;;;5035602;28;20094;-24
2022/09/16 02:26:01;;;;;;;1.95;1.58;;;20.60;98.10;;;;;;5035531;28;20021;-24
2022/09/16 02:28:36;;;;;;;2.50;1.50;;;20.70;98.10;;;;;;5035609;28;20387;-24
2022/09/16 02:31:07;;;;;;;3.55;1.73;;;20.60;98.10;;;;;;5035432;28;20017;-24
2022/09/16 02:33:39;;;;;;;3.45;1.50;;;20.60;98.10;;;;;;5035203;28;20100;-24
2022/09/16 02:36:07;;;;;;;2.30;1.60;;;20.60;98.10;;;;;;5035364;28;20386;-24
2022/09/16 02:38:40;;;;;;;2.00;1.50;;;20.60;98.10;;;;;;5035184;28;20068;-24
2022/09/16 02:41:08;;;;;;;1.83;1.50;;;20.60;98.10;;;;;;5035219;28;20071;-24
2022/09/16 02:43:34;;;;;;;1.70;1.35;;;20.60;98.10;;;;;;5035165;28;20489;-24
2022/09/16 02:46:37;;;;;;;2.95;1.35;;;20.60;98.10;;;;;;5034974;28;20061;-24
2022/09/16 02:49:25;;;;;;;2.72;1.50;;;20.60;98.10;;;;;;5024035;28;20038;-24
2022/09/16 02:52:08;;;;;;;1.40;1.30;;;20.60;98.10;;;;;;5035109;28;20025;-24
2022/09/16 02:54:45;;;;;;;1.52;1.30;;;20.60;98.10;;;;;;5035178;28;20017;-24
2022/09/16 02:57:11;;;;;;;3.33;1.60;;;20.50;98.10;;;;;;5034872;28;20029;-24
2022/09/16 02:59:38;;;;;;;2.05;1.48;;;20.50;98.10;;;;;;5034782;28;20030;-24
2022/09/16 03:02:03;;;;;;;1.50;1.33;;;20.50;98.10;;;;;;5034774;28;20028;-24
2022/09/16 03:04:29;;;;;;;2.58;1.63;;;20.50;98.10;;;;;;5034809;28;20037;-24
2022/09/16 03:06:55;;;;;;;3.83;1.60;;;20.50;98.10;;;;;;5034536;28;20037;-24
2022/09/16 03:09:23;;;;;;;2.72;1.50;;;20.50;98.10;;;;;;5034562;28;20029;-24
2022/09/16 03:11:57;;;;;;;2.35;1.30;;;20.50;98.10;;;;;;5034706;28;20018;-24
2022/09/16 03:14:56;;;;;;;2.72;1.58;;;20.50;98.10;;;;;;5015713;28;20044;-24
2022/09/16 03:17:58;;;;;;;2.78;1.55;;;20.50;98.10;;;;;;5034348;28;20037;-24
2022/09/16 03:20:43;;;;;;;1.70;1.52;;;20.50;98.10;;;;;;5034722;28;20022;-24
2022/09/16 03:23:27;;;;;;;2.50;1.50;;;20.50;98.10;;;;;;5016927;28;20060;-24
2022/09/16 03:26:14;;;;;;;2.10;1.55;;;20.50;98.10;;;;;;5034373;28;20030;-24
2022/09/16 03:29:05;;;;;;;1.77;1.40;;;20.50;98.10;;;;;;5034164;28;20026;-24
2022/09/16 03:32:04;;;;;;;1.65;1.30;;;20.50;98.10;;;;;;5034232;28;20052;-24
2022/09/16 03:35:00;;;;;;;2.47;1.40;;;20.50;98.10;;;;;;5017066;28;20030;-24
2022/09/16 03:37:30;;;;;;;1.80;1.42;;;20.50;98.10;;;;;;5026633;28;20033;-24
2022/09/16 03:39:59;;;;;;;2.38;1.42;;;20.50;98.10;;;;;;5034113;28;20101;-24
2022/09/16 03:42:25;;;;;;;3.53;1.80;;;20.40;98.10;;;;;;5034018;28;20034;-24
2022/09/16 03:44:50;;;;;;;2.08;1.40;;;20.40;98.10;;;;;;5034109;28;20025;-24
2022/09/16 03:47:17;;;;;;;2.10;1.33;;;20.50;98.10;;;;;;5033967;28;20380;-24
2022/09/16 03:49:42;;;;;;;2.83;1.40;;;20.40;98.10;;;;;;5033814;28;20026;-24
2022/09/16 03:52:08;;;;;;;1.85;1.50;;;20.50;98.10;;;;;;5033926;28;20083;-24
2022/09/16 03:54:35;;;;;;;2.08;1.35;;;20.40;98.00;;;;;;5034019;28;20471;-24
2022/09/16 03:57:01;;;;;;;3.47;1.40;;;20.40;98.10;;;;;;5033599;28;20029;-24
2022/09/16 03:59:27;;;;;;;2.83;1.38;;;20.40;98.10;;;;;;5033632;28;20087;-24
2022/09/16 04:01:53;;;;;;;2.80;1.50;;;20.40;98.10;;;;;;5034194;28;20025;-24
2022/09/16 04:04:19;;;;;;;5.05;1.45;;;20.40;98.10;;;;;;5034058;28;20044;-24
2022/09/16 04:06:45;;;;;;;4.88;1.40;;;20.40;98.10;;;;;;5034002;28;20112;-24
2022/09/16 04:09:11;;;;;;;2.35;1.23;;;20.40;98.10;;;;;;5033512;28;20025;-23
2022/09/16 04:11:38;;;;;;;2.70;1.42;;;20.40;98.10;;;;;;5033448;28;20502;-24
2022/09/16 04:14:04;;;;;;;2.30;1.60;;;20.40;98.00;;;;;;5033525;28;20051;-24
2022/09/16 04:16:30;;;;;;;2.65;1.50;;;20.40;98.00;;;;;;5033236;28;20402;-24
2022/09/16 04:18:56;;;;;;;2.08;1.63;;;20.40;98.00;;;;;;5033258;28;20105;-24
2022/09/16 04:21:21;;;;;;;2.20;1.40;;;20.40;98.00;;;;;;5015721;28;20037;-24
2022/09/16 04:23:48;;;;;;;2.25;1.55;;;20.40;98.00;;;;;;5033353;28;20025;-24
2022/09/16 04:26:14;;;;;;;2.88;1.48;;;20.40;98.00;;;;;;5032814;28;20030;-24
2022/09/16 04:28:39;;;;;;;2.38;1.58;;;20.40;98.00;;;;;;5015522;28;20025;-24
2022/09/16 04:31:09;;;;;;;1.65;1.38;;;20.40;97.90;;;;;;5033098;28;20029;-24
2022/09/16 04:33:35;;;;;;;3.08;1.40;;;20.40;97.90;;;;;;5033228;28;20140;-24
2022/09/16 04:36:05;;;;;;;2.22;1.30;;;20.40;98.30;;;;;;5033045;28;20029;-24
2022/09/16 04:38:31;;;;;;;1.83;1.30;;;20.40;97.90;;;;;;5032837;28;20445;-24
2022/09/16 04:41:11;;;;;;;1.83;1.50;;;20.40;98.00;;;;;;5032898;28;20112;-24
2022/09/16 04:43:37;;;;;;;2.30;1.40;;;20.40;97.90;;;;;;5015224;28;20127;-24
2022/09/16 04:46:03;;;;;;;2.05;1.58;;;20.40;97.90;;;;;;5032873;28;20053;-24
2022/09/16 04:48:29;;;;;;;2.15;1.80;;;20.40;97.90;;;;;;5014855;28;20032;-24
2022/09/16 04:51:02;;;;;;;1.70;1.27;;;20.40;97.90;;;;;;5032668;28;20026;-24
2022/09/16 04:53:28;;;;;;;1.60;1.50;;;20.40;97.90;;;;;;5032883;28;20030;-24
2022/09/16 04:55:53;;;;;;;2.00;1.42;;;20.40;97.90;;;;;;5032645;28;20032;-24
2022/09/16 04:58:19;;;;;;;1.92;1.25;;;20.40;98.00;;;;;;5014896;28;20025;-24
2022/09/16 05:00:45;;;;;;;1.73;1.30;;;20.40;97.90;;;;;;5032457;28;20041;-24
2022/09/16 05:03:11;;;;;;;3.63;1.50;;;20.50;97.90;;;;;;5032680;28;20064;-24
2022/09/16 05:05:36;;;;;;;3.08;1.60;;;20.40;97.90;;;;;;5032397;28;20425;-24
2022/09/16 05:08:02;;;;;;;5.53;1.55;;;20.40;97.90;;;;;;5032457;28;20478;-24
2022/09/16 05:10:27;;;;;;;1.55;1.23;;;20.40;97.90;;;;;;5032236;28;20056;-24
2022/09/16 05:12:53;;;;;;;1.52;1.42;;;20.40;97.90;;;;;;5032546;28;20417;-24
2022/09/16 05:15:20;;;;;;;3.75;1.50;;;20.40;97.90;;;;;;5032193;28;20069;-24
2022/09/16 05:17:46;;;;;;;2.22;1.27;;;20.40;98.00;;;;;;5032408;28;20056;-24
2022/09/16 05:20:13;;;;;;;1.80;1.33;;;20.40;98.30;;;;;;5032024;28;20032;-24
2022/09/16 05:22:39;;;;;;;2.17;1.40;;;20.40;98.00;;;;;;5032343;28;20032;-24
2022/09/16 05:25:04;;;;;;;2.78;1.30;;;20.40;97.90;;;;;;5032223;28;20101;-24
2022/09/16 05:27:31;;;;;;;2.30;1.58;;;20.40;98.00;;;;;;5032288;28;20025;-24
2022/09/16 05:29:56;;;;;;;1.65;1.40;;;20.40;98.00;;;;;;5014242;28;20384;-24
2022/09/16 05:32:22;;;;;;;3.20;1.50;;;20.40;98.00;;;;;;5032155;28;20113;-24
2022/09/16 05:34:49;;;;;;;1.70;1.40;;;20.40;98.30;;;;;;5032085;28;20301;-24
2022/09/16 05:37:16;;;;;;;2.40;1.55;;;20.40;98.00;;;;;;5031675;28;20060;-23
2022/09/16 05:39:42;;;;;;;1.67;1.52;;;20.40;98.00;;;;;;5032227;28;20026;-24
2022/09/16 05:42:08;;;;;;;4.30;1.38;;;20.40;98.00;;;;;;5032038;28;20053;-24
2022/09/16 05:44:34;;;;;;;2.03;1.38;;;20.40;98.00;;;;;;5032013;28;20434;-24
2022/09/16 05:47:01;;;;;;;3.20;1.40;;;20.40;98.00;;;;;;5031943;28;20021;-24
2022/09/16 05:49:27;;;;;;;4.85;1.50;;;20.40;98.00;;;;;;5031659;28;20033;-24
2022/09/16 05:51:53;;;;;;;2.13;1.45;;;20.30;98.00;;;;;;5032005;28;20410;-24
2022/09/16 05:54:20;;;;;;;1.95;1.27;;;20.40;98.10;;;;;;5032002;28;20036;-24
2022/09/16 05:56:46;;;;;;;3.15;1.40;;;20.40;98.10;;;;;;5032000;28;20067;-24
2022/09/16 05:59:13;;;;;;;1.95;1.17;;;20.40;98.10;;;;;;5031818;28;20018;-23
2022/09/16 06:01:39;;;;;;;2.22;1.50;;;20.40;98.10;;;;;;5031885;28;20029;-24
2022/09/16 06:04:09;;;;;;;1.83;1.45;;;20.30;98.10;;;;;;5031758;28;20025;-24
2022/09/16 06:06:38;;;;;;;2.85;1.50;;;20.30;98.10;;;;;;5031938;28;20099;-24
2022/09/16 06:09:11;;;;;;;4.18;1.45;;;20.40;98.10;;;;;;5032281;28;20044;-24
2022/09/16 06:11:49;;;;;;;2.58;1.60;;;20.40;98.50;;;;;;5032354;28;20037;-24
2022/09/16 06:14:16;;;;;;;2.08;1.50;;;20.40;98.10;;;;;;5032783;28;20104;-24
2022/09/16 06:16:42;;;;;;;1.50;1.40;;;20.30;98.10;;;;;;5061014;22;20033;-25
2022/09/16 06:19:11;;;;;;;3.08;1.58;;;20.30;98.10;;;;;;5051978;28;20108;-25
2022/09/16 06:21:37;;;;;;;2.15;1.55;;;20.40;98.20;;;;;;5052284;28;20029;-25
2022/09/16 06:24:07;;;;;;;5.88;1.63;;;20.40;98.10;;;;;;5052200;28;20095;-25
2022/09/16 06:26:33;;;;;;;1.60;1.40;;;20.40;98.10;;;;;;5052248;28;20104;-25
2022/09/16 06:28:59;;;;;;;2.17;1.45;;;20.40;98.50;;;;;;5051898;28;20112;-25
2022/09/16 06:31:26;;;;;;;1.88;1.33;;;20.30;98.10;;;;;;5052130;28;20104;-25
2022/09/16 06:33:53;;;;;;;1.55;1.27;;;20.40;98.20;;;;;;5051869;28;20095;-25
2022/09/16 06:36:22;;;;;;;3.25;1.33;;;20.30;98.10;;;;;;5051718;28;20017;-26
2022/09/16 06:38:48;;;;;;;1.90;1.38;;;20.30;98.20;;;;;;5051812;28;20029;-25
2022/09/16 06:41:15;;;;;;;2.28;1.55;;;20.30;98.10;;;;;;5051607;28;20025;-25
2022/09/16 06:43:42;;;;;;;2.08;1.63;;;20.30;98.50;;;;;;5051848;28;20428;-25
2022/09/16 06:46:12;;;;;;;2.50;1.38;;;20.30;98.20;;;;;;5051895;28;20067;-25
2022/09/16 06:48:42;;;;;;;2.50;1.50;;;20.30;98.20;;;;;;5054449;28;20083;-25
2022/09/16 06:51:13;;;;;;;1.48;1.20;;;20.30;98.20;;;;;;5055733;28;20528;-25
2022/09/16 06:53:39;;;;;;;3.85;1.40;;;20.30;98.20;;;;;;5055619;28;20216;-25
2022/09/16 06:56:11;;;;;;;2.70;1.42;;;20.30;98.30;;;;;;5055505;28;20021;-25
2022/09/16 06:58:38;;;;;;;4.07;1.33;;;20.30;98.30;;;;;;5055310;28;20043;-25
2022/09/16 07:01:12;;;;;;;2.53;1.60;;;20.20;98.20;;;;;;5055372;28;20489;-25
2022/09/16 07:03:40;;;;;;;1.42;1.30;;;20.30;98.30;;;;;;5055326;28;20036;-25
2022/09/16 07:06:07;;;;;;;1.65;1.42;;;20.30;98.30;;;;;;5055496;28;20056;-25
2022/09/16 07:08:34;;;;;;;2.25;1.52;;;20.30;98.30;;;;;;5055021;28;20032;-25
2022/09/16 07:11:03;;;;;;;2.20;1.45;;;20.20;98.30;;;;;;5054866;28;20028;-25
2022/09/16 07:13:29;;;;;;;4.43;1.30;;;20.20;98.30;;;;;;5055371;28;20025;-25
2022/09/16 07:16:00;;;;;;;2.47;1.50;;;20.20;98.30;;;;;;5055279;28;20078;-25
2022/09/16 07:18:26;;;;;;;2.58;1.40;;;20.20;98.30;;;;;;5055154;28;20340;-25
2022/09/16 07:20:59;;;;;;;4.25;1.30;;;20.20;98.30;;;;;;5054914;28;20078;-26
2022/09/16 07:23:24;;;;;;;4.25;1.60;;;20.20;98.30;;;;;;5054988;28;20017;-25
2022/09/16 07:26:09;;;;;;;2.25;1.40;;;20.20;98.30;;;;;;5054823;28;20071;-25
2022/09/16 07:28:35;;;;;;;3.15;1.33;;;20.20;98.40;;;;;;5054580;28;20500;-26
2022/09/16 07:31:03;;;;;;;2.95;1.33;;;20.20;98.40;;;;;;5054871;28;20021;-25
2022/09/16 07:33:31;;;;;;;1.88;1.20;;;20.20;98.40;;;;;;5054874;28;20153;-25
2022/09/16 07:36:01;;;;;;;2.42;1.30;;;20.20;98.40;;;;;;5054701;28;20052;-25
2022/09/16 07:38:28;;;;;;;1.65;1.30;;;20.20;98.40;;;;;;5054570;28;20028;-25
2022/09/16 07:40:54;;;;;;;2.67;1.50;;;20.20;98.40;;;;;;5054238;28;20021;-25
2022/09/16 07:43:20;;;;;;;2.15;1.10;;;20.20;98.40;;;;;;5054471;28;20543;-25
2022/09/16 07:45:45;;;;;;;2.33;1.33;;;20.20;98.70;;;;;;5054341;28;20044;-25
2022/09/16 07:48:11;;;;;;;3.15;1.40;;;20.20;98.40;;;;;;5036619;28;20163;-25
2022/09/16 07:50:36;;;;;;;2.45;1.30;;;20.20;98.40;;;;;;5054271;28;20041;-25
2022/09/16 07:53:03;;;;;;;2.10;1.08;;;20.20;98.40;;;;;;5054262;28;20051;-26
2022/09/16 07:55:28;;;;;;;5.68;1.30;;;20.20;98.40;;;;;;5036503;28;20025;-25
2022/09/16 07:57:54;;;;;;;2.17;1.40;;;20.20;98.80;;;;;;5054395;28;20025;-25
2022/09/16 08:00:20;;;;;;;2.10;1.15;;;20.20;98.50;;;;;;5053420;28;20540;-25
2022/09/16 08:02:46;;;;;;;1.90;1.20;;;20.20;98.50;;;;;;5054079;28;20497;-25
2022/09/16 08:05:12;;;;;;;2.70;1.23;;;20.20;98.40;;;;;;5054041;28;20037;-25
2022/09/16 08:07:38;;;;;;;2.50;1.35;;;20.20;98.50;;;;;;5054074;28;20039;-25
2022/09/16 08:10:04;;;;;;;2.03;1.30;;;20.20;98.50;;;;;;5053823;28;20029;-25
2022/09/16 08:12:32;;;;;;;3.53;1.20;;;20.10;98.50;;;;;;5053929;28;20535;-25
2022/09/16 08:14:58;;;;;;;2.78;1.20;;;20.10;98.50;;;;;;5053865;28;20029;-25
2022/09/16 08:17:25;;;;;;;1.67;1.23;;;20.20;98.50;;;;;;5053859;28;20032;-25
2022/09/16 08:19:50;;;;;;;1.85;1.20;;;20.10;98.50;;;;;;5053580;28;20025;-25
2022/09/16 08:22:16;;;;;;;2.35;1.33;;;20.10;98.50;;;;;;5053667;28;20071;-25
2022/09/16 08:24:41;;;;;;;2.55;1.30;;;20.20;98.60;;;;;;5053797;28;20043;-25
2022/09/16 08:27:07;;;;;;;2.80;1.20;;;20.10;98.50;;;;;;5053802;28;20385;-25
2022/09/16 08:29:33;;;;;;;2.22;1.27;;;20.20;98.60;;;;;;5053238;28;20032;-25
2022/09/16 08:31:58;;;;;;;1.77;1.20;;;20.20;98.60;;;;;;5053665;28;20017;-25
2022/09/16 08:34:24;;;;;;;2.22;1.25;;;20.10;98.60;;;;;;5053592;28;20036;-25
2022/09/16 08:36:50;;;;;;;2.08;1.30;;;20.20;98.60;;;;;;5053355;28;20107;-25
2022/09/16 08:39:16;;;;;;;4.60;1.60;;;20.20;98.60;;;;;;5053384;28;20087;-25
2022/09/16 08:41:56;;;;;;;2.38;1.30;;;20.10;98.60;;;;;;5053289;28;20463;-25
2022/09/16 08:44:49;;;;;;;3.33;1.15;;;20.10;98.60;;;;;;5053574;28;20025;-25
2022/09/16 08:47:25;;;;;;;1.88;1.20;;;20.10;98.60;;;;;;5053180;28;20028;-25
2022/09/16 08:49:53;;;;;;;1.38;1.08;;;20.20;98.70;;;;;;5053089;28;20029;-25
2022/09/16 08:52:31;;;;;;;3.17;1.05;;;20.20;98.70;;;;;;5053117;28;20147;-25
2022/09/16 08:55:24;;;;;;;1.65;1.25;;;20.10;98.70;;;;;;5053348;28;20053;-25
2022/09/16 08:58:19;;;;;;;1.70;1.20;;;20.20;98.70;;;;;;5042213;28;20083;-25
2022/09/16 09:00:53;;;;;;;1.88;1.00;;;20.10;98.70;;;;;;5053093;28;20029;-25
2022/09/16 09:03:40;;;;;;;1.67;1.02;;;20.10;99.00;;;;;;5053001;28;20025;-25
2022/09/16 09:06:30;;;;;;;1.95;1.13;;;20.10;98.70;;;;;;5035351;28;20136;-25
2022/09/16 09:09:04;;;;;;;1.98;1.25;;;20.10;98.70;;;;;;4995665;28;20029;-25
2022/09/16 09:11:49;;;;;;;1.50;1.00;;;20.10;98.70;;;;;;5051831;28;20021;-25
2022/09/16 09:14:33;;;;;;;1.92;1.15;;;20.10;98.70;;;;;;5034947;28;20025;-25
2022/09/16 09:17:29;;;;;;;2.10;1.38;;;20.10;98.70;;;;;;5052581;28;20482;-25
2022/09/16 09:20:00;;;;;;;1.80;1.10;;;20.10;98.70;;;;;;5052834;28;20053;-25
2022/09/16 09:22:54;;;;;;;2.95;1.20;;;20.10;98.70;;;;;;5052932;28;20485;-25
2022/09/16 09:25:41;;;;;;;1.88;0.85;;;20.10;98.70;;;;;;4964372;28;20042;-25
2022/09/16 09:28:30;;;;;;;2.53;1.10;;;20.10;98.80;;;;;;5052251;28;20040;-25
2022/09/16 09:31:26;;;;;;;1.30;1.00;;;20.10;98.80;;;;;;5052459;28;20021;-25
2022/09/16 09:33:58;;;;;;;1.58;1.08;;;20.10;98.80;;;;;;5052933;28;20052;-25
2022/09/16 09:36:38;;;;;;;2.08;0.98;;;20.10;98.80;;;;;;5052458;28;20021;-25
2022/09/16 09:39:30;;;;;;;1.90;0.93;;;20.10;98.80;;;;;;5052206;28;20115;-26
2022/09/16 09:42:23;;;;;;;1.48;0.98;;;20.10;98.80;;;;;;5052238;28;20036;-25
2022/09/16 09:45:13;;;;;;;2.47;1.30;;;20.10;98.80;;;;;;5052495;28;20554;-25
2022/09/16 09:47:56;;;;;;;2.45;1.23;;;20.00;98.80;;;;;;5052160;28;20079;-25
2022/09/16 09:50:48;;;;;;;1.70;1.10;;;20.10;98.80;;;;;;5052258;28;20494;-25
2022/09/16 09:53:22;;;;;;;1.52;1.10;;;20.10;98.80;;;;;;5039207;28;20394;-25
2022/09/16 09:55:56;;;;;;;1.10;0.75;;;20.10;98.80;;;;;;5052343;28;20017;-25
2022/09/16 09:59:00;;;;;;;0.93;0.90;;;20.10;98.80;;;;;;5052194;28;20024;-25
2022/09/16 10:01:26;;;;;;;1.45;0.80;;;20.00;98.80;;;;;;5047116;28;20037;-25
2022/09/16 10:03:54;;;;;;;1.60;0.70;;;20.00;98.80;;;;;;5052189;28;20025;-26
2022/09/16 10:06:29;;;;;;;3.28;1.02;;;20.00;98.80;;;;;;5052124;28;20032;-25
2022/09/16 10:08:57;;;;;;;2.05;1.23;;;20.00;98.80;;;;;;5052141;28;20025;-25
2022/09/16 10:11:29;;;;;;;1.83;1.10;;;20.00;98.80;;;;;;5052215;28;20367;-25
2022/09/16 10:13:57;;;;;;;1.38;0.90;;;20.00;98.80;;;;;;5052069;28;20458;-25
2022/09/16 10:16:31;;;;;;;1.58;0.85;;;20.00;98.80;;;;;;5051788;28;20033;-25
2022/09/16 10:19:22;;;;;;;1.10;0.90;;;20.00;98.80;;;;;;5051847;28;20095;-26
2022/09/16 10:21:52;;;;;;;1.33;0.85;;;20.00;98.80;;;;;;5052123;28;20041;-25
2022/09/16 10:24:34;;;;;;;1.67;0.90;;;20.00;98.90;;;;;;5055473;28;20029;-25
2022/09/16 10:27:02;;;;;;;1.75;0.93;;;20.00;98.90;;;;;;5055797;28;20405;-25
2022/09/16 10:29:28;;;;;;;1.65;0.80;;;20.00;99.00;;;;;;5055609;28;20032;-25
2022/09/16 10:31:54;;;;;;;1.63;0.93;;;20.00;99.00;;;;;;5056038;28;20021;-25
2022/09/16 10:34:37;;;;;;;2.13;1.10;;;20.00;99.00;;;;;;5055618;28;20109;-25
2022/09/16 10:37:12;;;;;;;1.83;1.00;;;20.00;99.00;;;;;;5055590;28;20466;-26
2022/09/16 10:39:44;;;;;;;1.60;0.90;;;20.00;99.00;;;;;;5055430;28;20033;-25
2022/09/16 10:42:22;;;;;;;1.13;0.82;;;20.00;99.00;;;;;;5055343;28;20478;-25
2022/09/16 10:44:51;;;;;;;1.55;0.80;;;20.00;99.00;;;;;;5055644;28;20033;-25
2022/09/16 10:47:21;;;;;;;1.38;0.70;;;20.00;98.90;;;;;;5055327;28;20021;-25
2022/09/16 10:50:05;;;;;;;1.67;1.08;;;20.00;98.90;;;;;;5055188;28;20028;-25
2022/09/16 10:52:41;;;;;;;2.00;1.00;;;20.00;98.90;;;;;;5055335;28;20025;-25
2022/09/16 10:55:34;;;;;;;1.13;0.98;;;20.00;98.90;;;;;;5055436;28;20028;-25
2022/09/16 10:58:16;;;;;;;1.48;0.85;;;20.00;98.90;;;;;;5055298;28;20028;-24
2022/09/16 11:00:59;;;;;;;1.95;0.93;;;20.00;98.90;;;;;;5054970;28;20025;-25
2022/09/16 11:03:53;;;;;;;2.13;1.10;;;20.00;98.90;;;;;;5055183;28;20029;-25
2022/09/16 11:06:51;;;;;;;1.17;0.93;;;20.00;99.00;;;;;;5055010;28;20064;-25
2022/09/16 11:09:35;;;;;;;3.50;0.93;;;20.00;99.00;;;;;;5054866;28;20530;-25
2022/09/16 11:12:28;;;;;;;1.23;0.95;;;20.00;98.90;;;;;;5054885;28;20029;-25
2022/09/16 11:15:06;;;;;;;2.35;1.15;;;20.00;98.90;;;;;;5055258;28;20382;-25
2022/09/16 11:17:56;;;;;;;1.42;0.82;;;20.00;98.90;;;;;;5054558;28;20060;-25
2022/09/16 11:20:50;;;;;;;3.20;1.00;;;20.00;98.90;;;;;;5054513;28;20029;-25
2022/09/16 11:23:34;;;;;;;1.43;0.90;;;19.90;98.90;;;;;;5054887;28;20025;-25
2022/09/16 11:26:37;;;;;;;1.47;0.80;;;19.90;98.90;;;;;;5054887;28;20025;-25
2022/09/16 11:29:34;;;;;;;2.42;0.90;;;19.90;98.90;;;;;;5054433;28;20300;-26
2022/09/16 11:32:17;;;;;;;7.03;1.40;;;19.90;98.90;;;;;;5054689;28;20021;-25
2022/09/16 11:34:45;;;;;;;6.28;1.08;;;19.80;95.20;;;;;;5054148;28;20299;-25
2022/09/16 11:37:34;;;;;;;3.50;1.00;;;19.50;93.80;;;;;;5054029;28;20025;-26
2022/09/16 11:40:06;;;;;;;4.70;1.30;;;19.40;94.30;;;;;;5036046;28;20394;-25
2022/09/16 11:42:45;;;;;;;6.30;1.42;;;19.40;94.80;;;;;;5054224;28;20036;-25
2022/09/16 11:45:26;;;;;;;3.30;0.95;;;19.40;95.00;;;;;;5054296;28;20029;-25
2022/09/16 11:47:52;;;;;;;3.80;1.00;;;19.50;95.20;;;;;;5054030;28;20504;-26
2022/09/16 11:50:21;;;;;;;3.60;0.90;;;19.50;95.40;;;;;;5053830;28;20051;-25
2022/09/16 11:53:05;;;;;;;3.45;1.00;;;19.60;95.50;;;;;;5054044;28;20021;-25
2022/09/16 11:55:56;;;;;;;4.32;0.95;;;19.60;95.60;;;;;;5054005;28;20039;-26
2022/09/16 11:58:34;;;;;;;6.25;1.17;;;19.70;95.70;;;;;;5053876;28;20505;-25
2022/09/16 12:01:08;;;;;;;2.90;0.98;;;19.70;95.90;;;;;;5053753;28;20075;-25
2022/09/16 12:03:41;;;;;;;2.38;0.98;;;19.70;95.90;;;;;;5053929;28;20504;-26
2022/09/16 12:06:13;;;;;;;2.45;1.15;;;19.80;96.00;;;;;;5053695;28;20020;-25
2022/09/16 12:09:01;;;;;;;4.07;1.20;;;19.80;96.00;;;;;;5053608;28;20494;-26
2022/09/16 12:11:32;;;;;;;2.63;1.02;;;19.80;96.10;;;;;;5053683;28;20074;-26
2022/09/16 12:14:24;;;;;;;3.35;0.90;;;19.80;96.10;;;;;;5053716;28;20017;-25
2022/09/16 12:16:58;;;;;;;3.35;1.45;;;19.80;96.20;;;;;;5074182;22;20581;-24
2022/09/16 12:19:36;;;;;;;2.35;0.82;;;19.90;96.20;;;;;;5033418;28;20080;-24
2022/09/16 12:22:10;;;;;;;3.00;0.82;;;19.90;96.30;;;;;;5015811;28;20124;-23
2022/09/16 12:24:44;;;;;;;3.05;1.00;;;19.90;96.30;;;;;;5033660;28;20029;-23
2022/09/16 12:27:43;;;;;;;2.05;0.80;;;19.90;96.30;;;;;;5033834;28;20112;-24
2022/09/16 12:30:19;;;;;;;1.67;0.65;;;19.90;96.40;;;;;;5033026;28;20033;-24
2022/09/16 12:33:09;;;;;;;2.65;1.00;;;19.90;96.40;;;;;;5033254;28;20040;-23
2022/09/16 12:35:53;;;;;;;2.35;0.70;;;19.90;96.40;;;;;;5033105;28;20108;-23
2022/09/16 12:38:20;;;;;;;3.95;1.00;;;19.90;96.50;;;;;;5033193;28;20391;-23
2022/09/16 12:41:00;;;;;;;2.85;0.80;;;19.80;96.50;;;;;;5033076;28;20033;-23
2022/09/16 12:43:47;;;;;;;1.80;0.70;;;19.80;96.50;;;;;;5015427;28;20490;-24
2022/09/16 12:46:37;;;;;;;3.25;1.08;;;19.80;96.60;;;;;;5032907;28;20132;-23
2022/09/16 12:49:16;;;;;;;3.95;1.13;;;19.80;96.60;;;;;;5032846;28;20216;-24
2022/09/16 12:52:20;;;;;;;2.78;0.70;;;19.90;96.70;;;;;;5015211;28;20021;-23
2022/09/16 12:54:48;;;;;;;4.47;1.10;;;19.80;96.70;;;;;;5032910;28;20036;-23
2022/09/16 12:57:27;;;;;;;2.78;1.17;;;19.80;96.70;;;;;;5032786;28;20259;-23
2022/09/16 12:59:56;;;;;;;1.60;0.88;;;19.80;96.70;;;;;;5032760;28;20095;-23
2022/09/16 13:02:27;;;;;;;2.47;0.90;;;19.80;96.70;;;;;;5032701;28;20116;-23
2022/09/16 13:04:57;;;;;;;1.50;0.95;;;19.80;96.70;;;;;;5032689;28;20104;-23
2022/09/16 13:07:34;;;;;;;1.67;0.90;;;19.90;96.80;;;;;;5032633;28;20029;-23
2022/09/16 13:10:06;;;;;;;1.40;0.75;;;19.90;96.70;;;;;;5032442;28;20021;-23
2022/09/16 13:12:32;;;;;;;1.73;0.85;;;20.00;96.70;;;;;;5032612;28;20022;-23
2022/09/16 13:15:05;;;;;;;2.30;1.00;;;20.00;96.60;;;;;;5032496;28;20100;-23
2022/09/16 13:17:38;;;;;;;1.35;0.70;;;20.10;96.50;;;;;;5032468;28;20033;-23
2022/09/16 13:20:31;;;;;;;3.10;0.93;;;20.10;96.50;;;;;;5032581;28;20030;-23
2022/09/16 13:23:05;;;;;;;2.42;0.90;;;20.20;96.40;;;;;;5033007;28;20033;-23